createdAt,value
2018-09-05T00:00:46.681Z,20.89
2018-09-05T00:03:15.702Z,20.91
2018-09-05T00:05:44.699Z,20.93
2018-09-05T00:08:13.654Z,20.93
2018-09-05T00:10:42.588Z,20.93
2018-09-05T00:13:12.318Z,20.92
2018-09-05T00:15:41.374Z,20.91
2018-09-05T00:18:10.624Z,20.90
2018-09-05T00:20:39.826Z,20.89
2018-09-05T00:23:09.742Z,20.87
2018-09-05T00:25:38.779Z,20.87
2018-09-05T00:28:07.878Z,20.87
2018-09-05T00:30:36.836Z,20.87
2018-09-05T00:33:05.920Z,20.85
2018-09-05T00:35:34.855Z,20.83
2018-09-05T00:38:04.799Z,20.83
2018-09-05T00:40:33.850Z,20.83
2018-09-05T00:43:02.914Z,20.83
2018-09-05T00:45:31.958Z,20.83
2018-09-05T00:48:01.098Z,20.84
2018-09-05T00:50:30.442Z,20.83
2018-09-05T00:52:59.503Z,20.84
2018-09-05T00:55:28.384Z,20.82
2018-09-05T00:57:57.582Z,20.82
2018-09-05T01:00:26.525Z,20.81
2018-09-05T01:02:55.830Z,20.83
2018-09-05T01:05:24.829Z,20.82
2018-09-05T01:07:53.827Z,20.83
2018-09-05T01:10:22.858Z,20.83
2018-09-05T01:12:52.274Z,20.83
2018-09-05T01:15:21.370Z,20.85
2018-09-05T01:17:50.710Z,20.86
2018-09-05T01:20:19.576Z,20.88
2018-09-05T01:22:48.589Z,20.89
2018-09-05T01:25:17.535Z,20.90
2018-09-05T01:27:46.404Z,20.92
2018-09-05T01:30:15.417Z,20.90
2018-09-05T01:32:44.441Z,20.89
2018-09-05T01:35:14.275Z,20.88
2018-09-05T01:37:43.335Z,20.86
2018-09-05T01:40:12.377Z,20.83
2018-09-05T01:42:42.026Z,20.79
2018-09-05T01:45:10.978Z,20.77
2018-09-05T01:47:39.971Z,20.77
2018-09-05T01:50:09.012Z,20.76
2018-09-05T01:52:38.056Z,20.76
2018-09-05T01:55:07.305Z,20.74
2018-09-05T01:57:36.279Z,20.72
2018-09-05T02:00:05.442Z,20.72
2018-09-05T02:02:34.996Z,20.71
2018-09-05T02:05:04.225Z,20.70
2018-09-05T02:07:33.292Z,20.67
2018-09-05T02:10:02.210Z,20.65
2018-09-05T02:12:31.128Z,20.65
2018-09-05T02:15:00.807Z,20.64
2018-09-05T02:17:29.805Z,20.63
2018-09-05T02:19:58.761Z,20.61
2018-09-05T02:22:27.626Z,20.61
2018-09-05T02:24:56.554Z,20.59
2018-09-05T02:27:25.609Z,20.57
2018-09-05T02:29:54.640Z,20.55
2018-09-05T02:32:23.533Z,20.51
2018-09-05T02:34:52.702Z,20.49
2018-09-05T02:37:21.960Z,20.46
2018-09-05T02:39:50.998Z,20.44
2018-09-05T02:42:20.344Z,20.42
2018-09-05T02:44:49.426Z,20.39
2018-09-05T02:47:18.848Z,20.36
2018-09-05T02:49:47.668Z,20.37
2018-09-05T02:52:16.667Z,20.38
2018-09-05T02:54:45.694Z,20.39
2018-09-05T02:57:14.674Z,20.40
2018-09-05T02:59:43.537Z,20.40
2018-09-05T03:02:13.129Z,20.40
2018-09-05T03:04:42.149Z,20.40
2018-09-05T03:07:11.214Z,20.40
2018-09-05T03:09:40.338Z,20.40
2018-09-05T03:12:09.452Z,20.42
2018-09-05T03:14:38.355Z,20.43
2018-09-05T03:17:07.426Z,20.44
2018-09-05T03:19:36.517Z,20.45
2018-09-05T03:22:05.478Z,20.46
2018-09-05T03:24:34.706Z,20.46
2018-09-05T03:27:04.339Z,20.45
2018-09-05T03:29:33.433Z,20.46
2018-09-05T03:32:02.287Z,20.45
2018-09-05T03:34:31.401Z,20.46
2018-09-05T03:37:00.518Z,20.44
2018-09-05T03:39:29.574Z,20.41
2018-09-05T03:41:58.486Z,20.38
2018-09-05T03:44:27.498Z,20.34
2018-09-05T03:46:56.510Z,20.32
2018-09-05T03:49:25.401Z,20.27
2018-09-05T03:51:54.892Z,20.23
2018-09-05T03:54:23.947Z,20.20
2018-09-05T03:56:52.934Z,20.18
2018-09-05T03:59:22.154Z,20.17
2018-09-05T04:01:51.050Z,20.15
2018-09-05T04:04:20.982Z,20.14
2018-09-05T04:06:49.869Z,20.12
2018-09-05T04:09:19.033Z,20.11
2018-09-05T04:11:48.175Z,20.09
2018-09-05T04:14:18.086Z,20.07
2018-09-05T04:16:47.070Z,20.06
2018-09-05T04:19:16.771Z,20.04
2018-09-05T04:21:45.778Z,20.02
2018-09-05T04:24:14.670Z,20.01
2018-09-05T04:26:43.794Z,19.99
2018-09-05T04:29:13.089Z,19.99
2018-09-05T04:31:42.230Z,19.98
2018-09-05T04:34:11.356Z,19.97
2018-09-05T04:36:40.461Z,19.97
2018-09-05T04:39:10.634Z,19.97
2018-09-05T04:41:39.527Z,19.96
2018-09-05T04:44:09.022Z,19.96
2018-09-05T04:46:38.346Z,19.98
2018-09-05T04:49:07.417Z,19.97
2018-09-05T04:51:36.557Z,19.99
2018-09-05T04:54:06.409Z,19.99
2018-09-05T04:56:35.381Z,19.96
2018-09-05T04:59:04.806Z,19.95
2018-09-05T05:01:34.594Z,19.95
2018-09-05T05:04:03.691Z,19.96
2018-09-05T05:06:32.849Z,19.97
2018-09-05T05:09:02.946Z,20.00
2018-09-05T05:11:31.899Z,20.02
2018-09-05T05:14:00.998Z,20.04
2018-09-05T05:16:30.035Z,20.05
2018-09-05T05:18:58.981Z,20.08
2018-09-05T05:21:28.038Z,20.09
2018-09-05T05:23:56.907Z,20.09
2018-09-05T05:26:25.755Z,20.10
2018-09-05T05:28:54.772Z,20.10
2018-09-05T05:31:23.715Z,20.11
2018-09-05T05:33:53.054Z,20.14
2018-09-05T05:36:22.911Z,20.17
2018-09-05T05:38:51.946Z,20.22
2018-09-05T05:41:21.009Z,20.25
2018-09-05T05:43:50.076Z,20.26
2018-09-05T05:46:19.140Z,20.25
2018-09-05T05:48:48.370Z,20.25
2018-09-05T05:51:17.433Z,20.26
2018-09-05T05:53:46.875Z,20.29
2018-09-05T05:56:15.733Z,20.33
2018-09-05T05:58:44.821Z,20.37
2018-09-05T06:01:14.376Z,20.41
2018-09-05T06:03:43.469Z,20.44
2018-09-05T06:06:12.554Z,20.47
2018-09-05T06:08:41.714Z,20.50
2018-09-05T06:11:10.809Z,20.52
2018-09-05T06:13:40.214Z,20.54
2018-09-05T06:16:09.123Z,20.59
2018-09-05T06:18:38.179Z,20.62
2018-09-05T06:21:07.455Z,20.66
2018-09-05T06:23:36.494Z,20.69
2018-09-05T06:26:05.986Z,20.69
2018-09-05T06:28:35.370Z,20.69
2018-09-05T06:31:04.467Z,20.73
2018-09-05T06:33:33.660Z,20.78
2018-09-05T06:36:03.282Z,20.82
2018-09-05T06:38:32.298Z,20.85
2018-09-05T06:41:01.948Z,20.87
2018-09-05T06:43:31.138Z,20.90
2018-09-05T06:46:00.142Z,20.93
2018-09-05T06:48:29.296Z,20.97
2018-09-05T06:51:03.384Z,21.01
2018-09-05T06:53:32.443Z,21.05
2018-09-05T06:56:01.758Z,21.08
2018-09-05T06:58:30.946Z,21.12
2018-09-05T07:01:00.555Z,21.15
2018-09-05T07:03:29.752Z,21.17
2018-09-05T07:05:58.994Z,21.21
2018-09-05T07:08:28.486Z,21.26
2018-09-05T07:10:57.444Z,21.30
2018-09-05T07:13:26.531Z,21.36
2018-09-05T07:15:56.114Z,21.41
2018-09-05T07:18:26.125Z,21.45
2018-09-05T07:21:05.686Z,21.51
2018-09-05T07:23:24.544Z,21.55
2018-09-05T07:25:53.544Z,21.58
2018-09-05T07:28:22.643Z,21.61
2018-09-05T07:30:51.551Z,21.66
2018-09-05T07:33:20.663Z,21.69
2018-09-05T07:35:56.135Z,21.72
2018-09-05T07:38:25.157Z,21.74
2018-09-05T07:40:54.257Z,21.76
2018-09-05T07:43:23.246Z,21.82
2018-09-05T07:45:52.299Z,21.86
2018-09-05T07:48:21.366Z,21.92
2018-09-05T07:50:50.367Z,21.96
2018-09-05T07:53:19.434Z,22.03
2018-09-05T07:55:48.552Z,22.06
2018-09-05T07:58:17.509Z,22.12
2018-09-05T08:00:46.546Z,22.17
2018-09-05T08:03:15.641Z,22.23
2018-09-05T08:05:44.766Z,22.27
2018-09-05T08:08:14.342Z,22.32
2018-09-05T08:10:47.163Z,22.38
2018-09-05T08:13:16.126Z,22.43
2018-09-05T08:15:44.998Z,22.50
2018-09-05T08:18:14.136Z,22.55
2018-09-05T08:20:43.841Z,22.61
2018-09-05T08:23:13.131Z,22.65
2018-09-05T08:25:42.518Z,22.68
2018-09-05T08:28:12.039Z,22.70
2018-09-05T08:30:40.973Z,22.74
2018-09-05T08:33:10.038Z,22.81
2018-09-05T08:35:39.226Z,22.87
2018-09-05T08:38:08.438Z,22.93
2018-09-05T08:40:37.963Z,23.00
2018-09-05T08:43:07.007Z,23.05
2018-09-05T08:45:36.277Z,23.11
2018-09-05T08:48:05.229Z,23.16
2018-09-05T08:50:34.145Z,23.24
2018-09-05T08:53:03.433Z,23.32
2018-09-05T08:55:32.380Z,23.40
2018-09-05T08:58:01.448Z,23.47
2018-09-05T09:00:30.783Z,23.54
2018-09-05T09:02:59.993Z,23.61
2018-09-05T09:05:29.177Z,23.68
2018-09-05T09:07:58.184Z,23.75
2018-09-05T09:10:27.689Z,23.80
2018-09-05T09:12:56.932Z,23.86
2018-09-05T09:15:26.050Z,23.92
2018-09-05T09:17:56.532Z,23.98
2018-09-05T09:20:25.465Z,24.05
2018-09-05T09:22:54.698Z,24.10
2018-09-05T09:25:23.616Z,24.16
2018-09-05T09:27:52.994Z,24.22
2018-09-05T09:30:22.279Z,24.28
2018-09-05T09:32:51.388Z,24.35
2018-09-05T09:35:20.854Z,24.43
2018-09-05T09:37:50.543Z,24.47
2018-09-05T09:40:19.885Z,24.51
2018-09-05T09:42:49.602Z,24.58
2018-09-05T09:45:18.630Z,24.64
2018-09-05T09:47:48.043Z,24.70
2018-09-05T09:50:17.177Z,24.77
2018-09-05T09:52:46.360Z,24.81
2018-09-05T09:55:15.427Z,24.85
2018-09-05T09:57:44.414Z,24.90
2018-09-05T10:00:13.989Z,24.92
2018-09-05T10:02:48.241Z,24.88
2018-09-05T10:05:23.056Z,24.87
2018-09-05T10:07:56.979Z,24.92
2018-09-05T10:10:31.031Z,24.95
2018-09-05T10:13:05.201Z,24.95
2018-09-05T10:15:39.399Z,24.93
2018-09-05T10:18:14.355Z,24.91
2018-09-05T10:20:43.577Z,24.93
2018-09-05T10:23:13.342Z,24.95
2018-09-05T10:25:42.147Z,25.01
2018-09-05T10:28:11.233Z,25.07
2018-09-05T10:30:40.178Z,25.16
2018-09-05T10:33:09.231Z,25.22
2018-09-05T10:35:38.229Z,25.26
2018-09-05T10:38:07.342Z,25.32
2018-09-05T10:40:36.277Z,25.37
2018-09-05T10:43:05.331Z,25.39
2018-09-05T10:45:34.267Z,25.44
2018-09-05T10:48:03.357Z,25.55
2018-09-05T10:50:32.746Z,25.65
2018-09-05T10:53:01.804Z,25.74
2018-09-05T10:55:31.229Z,25.80
2018-09-05T10:58:00.355Z,25.83
2018-09-05T11:00:29.583Z,25.88
2018-09-05T11:02:59.161Z,25.94
2018-09-05T11:05:28.302Z,25.99
2018-09-05T11:07:57.494Z,26.01
2018-09-05T11:10:26.464Z,26.07
2018-09-05T11:12:55.767Z,26.12
2018-09-05T11:15:24.855Z,26.13
2018-09-05T11:17:53.727Z,26.16
2018-09-05T11:20:22.750Z,26.20
2018-09-05T11:22:51.901Z,26.19
2018-09-05T11:25:20.888Z,26.15
2018-09-05T11:27:49.967Z,26.09
2018-09-05T11:30:19.160Z,26.05
2018-09-05T11:32:48.434Z,26.06
2018-09-05T11:35:17.467Z,26.00
2018-09-05T11:37:46.665Z,25.90
2018-09-05T11:40:15.875Z,25.88
2018-09-05T11:42:45.694Z,25.87
2018-09-05T11:45:14.624Z,25.84
2018-09-05T11:47:43.771Z,25.86
2018-09-05T11:50:12.931Z,25.90
2018-09-05T11:52:42.035Z,25.96
2018-09-05T11:55:11.584Z,26.03
2018-09-05T11:57:41.021Z,26.13
2018-09-05T12:00:10.380Z,26.23
2018-09-05T12:02:39.725Z,26.25
2018-09-05T12:05:09.510Z,26.44
2018-09-05T12:07:38.744Z,26.57
2018-09-05T12:10:08.201Z,26.61
2018-09-05T12:12:38.202Z,26.67
2018-09-05T12:15:07.411Z,26.74
2018-09-05T12:17:36.677Z,26.82
2018-09-05T12:20:06.339Z,26.86
2018-09-05T12:22:35.381Z,26.92
2018-09-05T12:25:04.573Z,26.93
2018-09-05T12:27:33.609Z,26.95
2018-09-05T12:30:03.145Z,27.01
2018-09-05T12:32:32.140Z,27.10
2018-09-05T12:35:01.135Z,27.13
2018-09-05T12:37:30.497Z,27.15
2018-09-05T12:39:59.614Z,27.10
2018-09-05T12:42:28.593Z,26.99
2018-09-05T12:44:57.752Z,26.90
2018-09-05T12:47:26.833Z,26.89
2018-09-05T12:50:26.678Z,26.98
2018-09-05T12:52:56.617Z,26.99
2018-09-05T12:55:26.761Z,27.01
2018-09-05T12:57:56.099Z,27.05
2018-09-05T13:00:25.199Z,27.11
2018-09-05T13:02:55.063Z,27.18
2018-09-05T13:05:25.486Z,27.26
2018-09-05T13:07:54.945Z,27.34
2018-09-05T13:10:24.172Z,27.36
2018-09-05T13:12:53.133Z,27.34
2018-09-05T13:15:22.071Z,27.31
2018-09-05T13:17:51.065Z,27.23
2018-09-05T13:20:20.284Z,27.20
2018-09-05T13:22:49.313Z,27.23
2018-09-05T13:25:18.652Z,27.29
2018-09-05T13:27:47.623Z,27.35
2018-09-05T13:30:17.653Z,27.45
2018-09-05T13:32:46.777Z,27.50
2018-09-05T13:35:15.923Z,27.49
2018-09-05T13:37:44.837Z,27.49
2018-09-05T13:40:14.493Z,27.54
2018-09-05T13:42:43.509Z,27.61
2018-09-05T13:45:12.578Z,27.68
2018-09-05T13:47:41.713Z,27.69
2018-09-05T13:50:10.884Z,27.73
2018-09-05T13:52:40.025Z,27.81
2018-09-05T13:55:09.414Z,27.83
2018-09-05T13:57:38.466Z,27.86
2018-09-05T14:00:07.591Z,27.94
2018-09-05T14:02:36.624Z,28.00
2018-09-05T14:05:05.732Z,28.03
2018-09-05T14:07:34.810Z,28.01
2018-09-05T14:10:03.989Z,28.00
2018-09-05T14:12:33.093Z,28.06
2018-09-05T14:15:02.085Z,28.11
2018-09-05T14:17:32.006Z,28.14
2018-09-05T14:20:01.070Z,28.20
2018-09-05T14:22:30.592Z,28.21
2018-09-05T14:24:59.842Z,28.16
2018-09-05T14:27:28.817Z,28.10
2018-09-05T14:29:58.025Z,28.07
2018-09-05T14:32:27.089Z,28.07
2018-09-05T14:34:56.776Z,28.08
2018-09-05T14:37:25.827Z,28.13
2018-09-05T14:39:54.996Z,28.15
2018-09-05T14:42:24.304Z,28.14
2018-09-05T14:44:53.730Z,28.17
2018-09-05T14:47:23.338Z,28.16
2018-09-05T14:49:52.651Z,28.15
2018-09-05T14:52:21.729Z,28.13
2018-09-05T14:54:50.662Z,28.15
2018-09-05T14:57:19.800Z,28.17
2018-09-05T14:59:48.838Z,28.16
2018-09-05T15:02:18.973Z,28.16
2018-09-05T15:04:48.043Z,28.18
2018-09-05T15:07:17.276Z,28.18
2018-09-05T15:09:46.191Z,28.22
2018-09-05T15:12:15.198Z,28.26
2018-09-05T15:14:44.510Z,28.32
2018-09-05T15:17:13.493Z,28.37
2018-09-05T15:19:42.400Z,28.44
2018-09-05T15:22:11.472Z,28.47
2018-09-05T15:24:40.710Z,28.43
2018-09-05T15:27:10.086Z,28.40
2018-09-05T15:29:38.966Z,28.37
2018-09-05T15:32:08.169Z,28.34
2018-09-05T15:34:37.263Z,28.34
2018-09-05T15:37:06.357Z,28.35
2018-09-05T15:39:35.490Z,28.36
2018-09-05T15:42:04.422Z,28.34
2018-09-05T15:44:34.310Z,28.30
2018-09-05T15:47:03.960Z,28.26
2018-09-05T15:49:33.072Z,28.23
2018-09-05T15:52:02.355Z,28.21
2018-09-05T15:54:31.460Z,28.20
2018-09-05T15:57:00.563Z,28.22
2018-09-05T15:59:29.672Z,28.23
2018-09-05T16:01:59.889Z,28.24
2018-09-05T16:04:29.208Z,28.20
2018-09-05T16:06:57.995Z,28.16
2018-09-05T16:09:27.050Z,28.11
2018-09-05T16:11:56.397Z,28.09
2018-09-05T16:14:25.566Z,27.99
2018-09-05T16:16:54.554Z,27.93
2018-09-05T16:19:23.721Z,27.86
2018-09-05T16:21:52.911Z,27.80
2018-09-05T16:24:22.305Z,27.77
2018-09-05T16:26:51.925Z,27.75
2018-09-05T16:29:21.118Z,27.73
2018-09-05T16:31:50.187Z,27.76
2018-09-05T16:34:19.520Z,27.78
2018-09-05T16:36:48.510Z,27.84
2018-09-05T16:39:17.708Z,27.92
2018-09-05T16:41:46.742Z,27.99
2018-09-05T16:44:15.867Z,28.12
2018-09-05T16:46:45.044Z,28.22
2018-09-05T16:49:14.600Z,28.37
2018-09-05T16:51:44.157Z,28.55
2018-09-05T16:54:13.557Z,28.70
2018-09-05T16:56:42.547Z,28.81
2018-09-05T16:59:11.665Z,28.88
2018-09-05T17:01:40.625Z,28.88
2018-09-05T17:04:09.593Z,28.84
2018-09-05T17:06:38.582Z,28.82
2018-09-05T17:09:09.941Z,28.74
2018-09-05T17:11:39.300Z,28.58
2018-09-05T17:14:08.255Z,28.43
2018-09-05T17:16:38.075Z,28.30
2018-09-05T17:19:07.877Z,28.17
2018-09-05T17:21:36.912Z,28.05
2018-09-05T17:24:06.697Z,27.94
2018-09-05T17:26:35.802Z,27.84
2018-09-05T17:29:05.472Z,27.72
2018-09-05T17:31:34.696Z,27.61
2018-09-05T17:34:04.127Z,27.50
2018-09-05T17:36:33.269Z,27.39
2018-09-05T17:39:02.632Z,27.27
2018-09-05T17:41:31.609Z,27.17
2018-09-05T17:44:00.485Z,27.06
2018-09-05T17:46:29.582Z,26.96
2018-09-05T17:48:59.297Z,26.87
2018-09-05T17:51:28.751Z,26.78
2018-09-05T17:53:57.903Z,26.71
2018-09-05T17:56:26.857Z,26.64
2018-09-05T17:58:55.964Z,26.56
2018-09-05T18:01:25.755Z,26.49
2018-09-05T18:03:54.917Z,26.43
2018-09-05T18:06:24.517Z,26.37
2018-09-05T18:08:53.491Z,26.32
2018-09-05T18:11:22.888Z,26.25
2018-09-05T18:13:51.942Z,26.22
2018-09-05T18:16:21.144Z,26.17
2018-09-05T18:18:50.431Z,26.11
2018-09-05T18:21:19.651Z,26.05
2018-09-05T18:23:49.109Z,26.00
2018-09-05T18:26:18.427Z,25.95
2018-09-05T18:28:47.462Z,25.90
2018-09-05T18:31:16.756Z,25.84
2018-09-05T18:33:45.918Z,25.76
2018-09-05T18:36:15.081Z,25.71
2018-09-05T18:38:44.577Z,25.66
2018-09-05T18:41:13.705Z,25.60
2018-09-05T18:43:42.807Z,25.52
2018-09-05T18:46:12.246Z,25.46
2018-09-05T18:48:41.320Z,25.38
2018-09-05T18:51:10.303Z,25.35
2018-09-05T18:53:39.407Z,25.30
2018-09-05T18:56:08.686Z,25.27
2018-09-05T18:58:37.693Z,25.24
2018-09-05T19:01:06.707Z,25.16
2018-09-05T19:03:35.969Z,25.13
2018-09-05T19:06:04.914Z,25.09
2018-09-05T19:08:34.101Z,25.03
2018-09-05T19:11:03.683Z,25.00
2018-09-05T19:13:32.874Z,24.96
2018-09-05T19:16:01.954Z,24.93
2018-09-05T19:18:31.961Z,24.91
2018-09-05T19:21:01.299Z,24.87
2018-09-05T19:23:30.402Z,24.82
2018-09-05T19:25:59.741Z,24.77
2018-09-05T19:28:29.139Z,24.73
2018-09-05T19:30:58.993Z,24.69
2018-09-05T19:33:28.083Z,24.67
2018-09-05T19:35:57.518Z,24.64
2018-09-05T19:38:26.581Z,24.62
2018-09-05T19:40:55.736Z,24.60
2018-09-05T19:43:24.714Z,24.58
2018-09-05T19:45:53.670Z,24.55
2018-09-05T19:48:22.506Z,24.52
2018-09-05T19:50:51.718Z,24.49
2018-09-05T19:53:21.409Z,24.45
2018-09-05T19:55:50.603Z,24.42
2018-09-05T19:58:19.722Z,24.32
2018-09-05T20:00:48.739Z,24.37
2018-09-05T20:03:17.712Z,24.32
2018-09-05T20:05:46.691Z,24.29
2018-09-05T20:08:16.669Z,24.24
2018-09-05T20:10:46.235Z,24.20
2018-09-05T20:13:15.326Z,24.16
2018-09-05T20:15:44.402Z,24.12
2018-09-05T20:18:13.620Z,24.09
2018-09-05T20:20:42.609Z,24.06
2018-09-05T20:23:11.717Z,24.04
2018-09-05T20:25:40.813Z,24.00
2018-09-05T20:28:09.839Z,23.96
2018-09-05T20:30:39.270Z,23.93
2018-09-05T20:33:08.680Z,23.89
2018-09-05T20:35:38.404Z,23.86
2018-09-05T20:38:07.282Z,23.83
2018-09-05T20:40:36.365Z,23.81
2018-09-05T20:43:05.463Z,23.77
2018-09-05T20:45:34.604Z,23.73
2018-09-05T20:48:04.212Z,23.69
2018-09-05T20:50:33.358Z,23.65
2018-09-05T20:53:02.366Z,23.62
2018-09-05T20:55:31.330Z,23.59
2018-09-05T20:58:00.688Z,23.57
2018-09-05T21:00:29.654Z,23.53
2018-09-05T21:02:58.657Z,23.48
2018-09-05T21:05:28.139Z,23.46
2018-09-05T21:07:57.165Z,23.41
2018-09-05T21:10:26.244Z,23.37
2018-09-05T21:12:55.256Z,23.34
2018-09-05T21:15:27.116Z,23.31
2018-09-05T21:17:55.990Z,23.26
2018-09-05T21:20:25.192Z,23.22
2018-09-05T21:22:54.096Z,23.18
2018-09-05T21:25:23.073Z,23.15
2018-09-05T21:27:52.165Z,23.12
2018-09-05T21:30:21.459Z,23.08
2018-09-05T21:32:50.561Z,23.04
2018-09-05T21:35:19.474Z,23.01
2018-09-05T21:37:48.583Z,22.98
2018-09-05T21:40:17.607Z,22.95
2018-09-05T21:42:46.618Z,22.93
2018-09-05T21:45:16.271Z,22.90
2018-09-05T21:47:45.501Z,22.87
2018-09-05T21:50:14.738Z,22.83
2018-09-05T21:52:44.086Z,22.82
2018-09-05T21:55:13.531Z,22.78
2018-09-05T21:57:42.714Z,22.75
2018-09-05T22:00:12.355Z,22.73
2018-09-05T22:02:41.722Z,22.70
2018-09-05T22:05:10.774Z,22.68
2018-09-05T22:07:40.159Z,22.64
2018-09-05T22:10:09.495Z,22.61
2018-09-05T22:12:38.408Z,22.56
2018-09-05T22:15:07.958Z,22.52
2018-09-05T22:17:37.103Z,22.51
2018-09-05T22:20:06.253Z,22.47
2018-09-05T22:22:35.377Z,22.44
2018-09-05T22:25:04.508Z,22.40
2018-09-05T22:27:33.829Z,22.37
2018-09-05T22:30:02.901Z,22.34
2018-09-05T22:32:31.853Z,22.29
2018-09-05T22:35:00.834Z,22.23
2018-09-05T22:37:29.815Z,22.18
2018-09-05T22:39:58.827Z,22.16
2018-09-05T22:42:27.811Z,22.11
2018-09-05T22:45:07.921Z,22.07
2018-09-05T22:48:46.640Z,22.02
2018-09-05T22:51:33.222Z,21.95
2018-09-05T22:54:16.902Z,21.91
2018-09-05T22:58:05.408Z,21.86
2018-09-05T23:02:49.567Z,21.80
2018-09-05T23:08:48.391Z,21.66
2018-09-05T23:11:59.473Z,21.60
2018-09-05T23:14:40.445Z,21.55
2018-09-05T23:17:21.046Z,21.52
2018-09-05T23:21:00.119Z,21.49
2018-09-05T23:23:40.676Z,21.43
2018-09-05T23:26:09.865Z,21.38
2018-09-05T23:28:39.490Z,21.37
2018-09-05T23:31:08.633Z,21.34
2018-09-05T23:33:38.462Z,21.31
2018-09-05T23:36:08.089Z,21.29
2018-09-05T23:38:37.694Z,21.26
2018-09-05T23:41:07.373Z,21.23
2018-09-05T23:43:36.468Z,21.19
2018-09-05T23:46:05.446Z,21.16
2018-09-05T23:48:34.462Z,21.12
2018-09-05T23:51:03.636Z,21.09
2018-09-05T23:53:33.414Z,21.06
2018-09-05T23:56:02.417Z,21.02
2018-09-05T23:58:32.204Z,20.97
